Time;durP1;ratioP1;P1;durP2;ratioP2;P2;SDS_P1;SDS_P2;PMS_P1;PMS_P2;Temp;Humidity;BMP_temperature;BMP_pressure;BME280_temperature;BME280_humidity;BME280_pressure;Samples;Min_cycle;Max_cycle;Signal;HPM_P1;HPM_P2
2022/12/11 00:01:59;;;;;;;464.45;40.67;;;;;;;;;;6296948;22;20003;-90
2022/12/11 00:04:25;;;;;;;416.85;39.75;;;;;;;;;;6297705;22;20786;-89
2022/12/11 00:06:50;;;;;;;453.00;46.42;;;;;;;;;;6299634;22;20466;-90
2022/12/11 00:09:16;;;;;;;538.88;52.33;;;;;;;;;;6299140;22;20003;-90
2022/12/11 00:11:42;;;;;;;460.50;46.03;;;;;;;;;;6298423;22;20011;-90
2022/12/11 00:14:07;;;;;;;459.10;42.75;;;;;;;;;;6299413;22;20102;-90
2022/12/11 00:16:32;;;;;;;335.00;35.83;;;;;;;;;;6299973;22;19995;-90
2022/12/11 00:18:58;;;;;;;442.23;40.03;;;;;;;;;;6299026;22;19999;-90
2022/12/11 00:21:24;;;;;;;616.40;57.78;;;;;;;;;;6297929;22;20034;-90
2022/12/11 00:23:49;;;;;;;535.00;52.60;;;;;;;;;;6297726;22;20007;-90
2022/12/11 00:26:14;;;;;;;552.95;48.47;;;;;;;;;;6298344;22;20336;-90
2022/12/11 00:28:40;;;;;;;536.75;52.45;;;;;;;;;;6303720;22;19995;-89
2022/12/11 00:31:06;;;;;;;387.05;39.22;;;;;;;;;;6327595;22;19999;-89
2022/12/11 00:33:36;;;;;;;576.53;55.42;;;;;;;;;;6323614;22;20089;-91
2022/12/11 00:36:01;;;;;;;517.20;45.08;;;;;;;;;;6303930;22;20037;-91
2022/12/11 00:38:27;;;;;;;532.67;54.00;;;;;;;;;;6307220;22;20007;-91
2022/12/11 00:40:52;;;;;;;544.15;56.65;;;;;;;;;;6305225;22;20003;-91
2022/12/11 00:43:18;;;;;;;560.30;51.53;;;;;;;;;;6329067;22;20011;-90
2022/12/11 00:45:44;;;;;;;472.95;47.92;;;;;;;;;;6300290;22;20011;-92
2022/12/11 00:48:11;;;;;;;440.90;40.70;;;;;;;;;;6306873;22;19992;-90
2022/12/11 00:50:36;;;;;;;424.42;38.10;;;;;;;;;;6303580;22;20210;-90
2022/12/11 00:53:02;;;;;;;469.20;46.80;;;;;;;;;;6303801;22;20024;-90
2022/12/11 00:55:28;;;;;;;535.17;48.03;;;;;;;;;;6275610;22;21009;-90
2022/12/11 00:57:54;;;;;;;448.52;44.70;;;;;;;;;;6305111;22;20385;-90
2022/12/11 01:00:21;;;;;;;459.50;43.63;;;;;;;;;;6275838;22;20030;-91
2022/12/11 01:02:47;;;;;;;499.58;53.00;;;;;;;;;;6274555;22;20007;-90
2022/12/11 01:05:12;;;;;;;440.73;44.90;;;;;;;;;;6274112;22;20010;-90
2022/12/11 01:07:38;;;;;;;446.23;42.15;;;;;;;;;;6301588;22;19995;-91
2022/12/11 01:12:47;;;;;;;480.75;42.70;;;;;;;;;;6300709;22;20454;-91
2022/12/11 01:15:12;;;;;;;458.38;42.17;;;;;;;;;;6273827;22;20032;-90
2022/12/11 01:17:38;;;;;;;423.92;38.92;;;;;;;;;;6275063;22;20079;-91
2022/12/11 01:20:04;;;;;;;483.58;44.78;;;;;;;;;;6302489;22;20091;-92
2022/12/11 01:22:29;;;;;;;370.98;35.63;;;;;;;;;;6273373;22;20007;-92
2022/12/11 01:24:55;;;;;;;565.50;52.85;;;;;;;;;;6273020;22;20083;-91
2022/12/11 01:27:26;;;;;;;454.95;46.00;;;;;;;;;;6272767;22;20011;-91
2022/12/11 01:29:51;;;;;;;584.40;54.50;;;;;;;;;;6275245;22;20121;-91
2022/12/11 01:32:17;;;;;;;552.45;53.42;;;;;;;;;;6304824;22;20019;-91
2022/12/11 01:34:42;;;;;;;428.27;41.10;;;;;;;;;;6273087;22;20444;-91
2022/12/11 01:37:07;;;;;;;468.90;41.97;;;;;;;;;;6272292;22;20007;-91
2022/12/11 01:39:33;;;;;;;358.60;40.13;;;;;;;;;;6301298;22;20006;-91
2022/12/11 01:41:59;;;;;;;159.75;23.88;;;;;;;;;;6304916;22;19995;-92
2022/12/11 01:44:24;;;;;;;92.35;18.35;;;;;;;;;;6276482;22;20007;-91
2022/12/11 01:46:50;;;;;;;69.53;16.30;;;;;;;;;;6276263;22;20011;-91
2022/12/11 01:49:16;;;;;;;79.20;16.63;;;;;;;;;;6302713;22;20383;-91
2022/12/11 01:51:46;;;;;;;46.75;14.90;;;;;;;;;;6275342;22;20091;-91
2022/12/11 01:54:12;;;;;;;86.68;16.73;;;;;;;;;;6292683;22;20015;-92
2022/12/11 01:56:38;;;;;;;128.20;19.05;;;;;;;;;;6274929;22;20038;-92
2022/12/11 01:59:06;;;;;;;237.15;24.33;;;;;;;;;;6276651;22;20010;-91
2022/12/11 02:01:43;;;;;;;300.00;29.25;;;;;;;;;;6302328;22;20003;-91
2022/12/11 02:04:10;;;;;;;325.95;30.88;;;;;;;;;;6275270;22;20007;-91
2022/12/11 02:06:45;;;;;;;289.33;26.90;;;;;;;;;;6276553;22;20003;-90
2022/12/11 02:09:13;;;;;;;327.30;27.35;;;;;;;;;;6275237;22;20030;-91
2022/12/11 02:11:58;;;;;;;393.17;32.75;;;;;;;;;;6275809;22;20007;-91
2022/12/11 02:14:23;;;;;;;380.70;36.50;;;;;;;;;;6275134;22;20448;-91
2022/12/11 02:16:58;;;;;;;516.15;43.15;;;;;;;;;;6303412;22;20027;-92
2022/12/11 02:19:31;;;;;;;430.90;39.05;;;;;;;;;;6275866;22;20501;-93
2022/12/11 02:21:57;;;;;;;311.52;28.98;;;;;;;;;;6275880;22;20003;-92
2022/12/11 02:24:34;;;;;;;173.75;21.48;;;;;;;;;;6276508;22;20557;-92
2022/12/11 02:26:59;;;;;;;157.63;18.88;;;;;;;;;;6277300;22;20014;-92
2022/12/11 02:29:26;;;;;;;88.15;15.27;;;;;;;;;;6276939;22;20726;-91
2022/12/11 02:31:52;;;;;;;123.85;16.42;;;;;;;;;;6275965;22;20007;-93
2022/12/11 02:34:24;;;;;;;105.47;16.02;;;;;;;;;;6276473;22;20025;-92
2022/12/11 02:36:51;;;;;;;86.57;16.40;;;;;;;;;;6304092;22;20417;-92
2022/12/11 02:39:16;;;;;;;78.28;14.38;;;;;;;;;;6279447;22;20402;-92
2022/12/11 02:41:44;;;;;;;70.55;14.50;;;;;;;;;;6283169;22;20012;-92
2022/12/11 02:44:14;;;;;;;66.78;14.15;;;;;;;;;;6315157;22;19995;-91
2022/12/11 02:46:39;;;;;;;108.50;18.23;;;;;;;;;;6300829;22;20003;-92
2022/12/11 02:49:06;;;;;;;140.20;19.80;;;;;;;;;;6291041;22;20376;-92
2022/12/11 02:51:34;;;;;;;131.00;18.88;;;;;;;;;;6310557;22;20006;-91
2022/12/11 02:54:01;;;;;;;84.28;15.02;;;;;;;;;;6302945;22;20023;-91
2022/12/11 02:56:31;;;;;;;35.17;12.73;;;;;;;;;;6343774;22;20000;-92
2022/12/11 02:58:59;;;;;;;30.83;12.23;;;;;;;;;;6330998;22;20014;-91
2022/12/11 03:01:49;;;;;;;34.72;13.38;;;;;;;;;;6260946;22;20113;-92
2022/12/11 03:04:14;;;;;;;29.27;10.75;;;;;;;;;;6235203;22;20034;-92
2022/12/11 03:06:43;;;;;;;27.38;11.23;;;;;;;;;;6263709;22;20011;-91
2022/12/11 03:09:08;;;;;;;27.40;10.82;;;;;;;;;;6269649;22;20388;-92
2022/12/11 03:11:33;;;;;;;28.35;10.82;;;;;;;;;;6267951;22;20007;-90
2022/12/11 03:14:01;;;;;;;29.93;10.97;;;;;;;;;;6266697;22;20094;-92
2022/12/11 03:16:34;;;;;;;27.20;11.15;;;;;;;;;;6265853;22;20225;-91
2022/12/11 03:19:09;;;;;;;25.98;10.98;;;;;;;;;;6266626;22;20008;-91
2022/12/11 03:21:37;;;;;;;26.35;10.57;;;;;;;;;;6267039;22;20008;-91
2022/12/11 03:24:12;;;;;;;29.80;11.10;;;;;;;;;;6266883;22;20090;-91
2022/12/11 03:26:41;;;;;;;24.98;10.55;;;;;;;;;;6266560;22;20034;-92
2022/12/11 03:29:11;;;;;;;25.45;9.95;;;;;;;;;;6266449;22;20016;-92
2022/12/11 03:31:39;;;;;;;20.65;8.93;;;;;;;;;;6267262;22;20135;-92
2022/12/11 03:34:09;;;;;;;22.90;8.90;;;;;;;;;;6265935;22;20416;-92
2022/12/11 03:36:36;;;;;;;23.80;9.60;;;;;;;;;;6266087;22;20011;-91
2022/12/11 03:39:06;;;;;;;23.95;8.30;;;;;;;;;;6266698;22;20006;-92
2022/12/11 03:41:33;;;;;;;24.30;8.32;;;;;;;;;;6267531;22;20722;-92
2022/12/11 03:43:58;;;;;;;20.88;8.73;;;;;;;;;;6268411;22;20023;-91
2022/12/11 03:46:27;;;;;;;22.83;9.60;;;;;;;;;;6269918;22;20496;-91
2022/12/11 03:48:53;;;;;;;24.00;9.55;;;;;;;;;;6267122;22;20035;-92
2022/12/11 03:51:19;;;;;;;30.33;9.85;;;;;;;;;;6269835;22;20432;-91
2022/12/11 03:53:44;;;;;;;24.50;9.85;;;;;;;;;;6267950;22;20011;-92
2022/12/11 03:56:11;;;;;;;25.02;9.77;;;;;;;;;;6266616;22;20496;-92
2022/12/11 03:58:36;;;;;;;26.52;9.75;;;;;;;;;;6266733;22;20424;-92
2022/12/11 04:01:01;;;;;;;27.70;9.80;;;;;;;;;;6270205;22;20000;-92
2022/12/11 04:03:26;;;;;;;33.30;10.80;;;;;;;;;;6267768;22;20089;-90
2022/12/11 04:05:53;;;;;;;47.88;11.30;;;;;;;;;;6268280;22;20236;-92
2022/12/11 04:08:22;;;;;;;69.32;13.13;;;;;;;;;;6268244;22;20593;-93
2022/12/11 04:11:33;;;;;;;170.85;18.15;;;;;;;;;;6266590;22;20062;-91
2022/12/11 04:13:33;;;;;;;46.25;12.48;;;;;;;;;;6268566;22;20015;-91
2022/12/11 04:15:58;;;;;;;33.38;11.30;;;;;;;;;;6269902;22;20000;-92
2022/12/11 04:26:35;;;;;;;68.07;13.52;;;;;;;;;;6270017;22;20407;-92
2022/12/11 04:29:00;;;;;;;132.57;19.10;;;;;;;;;;6267819;22;20000;-92
2022/12/11 04:31:27;;;;;;;78.78;15.27;;;;;;;;;;6268193;22;20027;-91
2022/12/11 04:33:55;;;;;;;85.55;15.00;;;;;;;;;;6268067;22;20053;-93
2022/12/11 04:36:20;;;;;;;41.47;12.93;;;;;;;;;;6268058;22;20008;-91
2022/12/11 04:38:45;;;;;;;50.10;13.40;;;;;;;;;;6269953;22;20001;-92
2022/12/11 04:41:12;;;;;;;30.33;11.35;;;;;;;;;;6268272;22;20268;-92
2022/12/11 04:43:37;;;;;;;31.40;11.63;;;;;;;;;;6268019;22;20038;-92
2022/12/11 04:46:04;;;;;;;26.88;9.85;;;;;;;;;;6268049;22;20429;-91
2022/12/11 04:48:30;;;;;;;26.30;9.30;;;;;;;;;;6267200;22;20011;-92
2022/12/11 04:50:55;;;;;;;24.35;9.52;;;;;;;;;;6267745;22;20007;-91
2022/12/11 04:53:20;;;;;;;24.90;9.25;;;;;;;;;;6266225;22;20007;-91
2022/12/11 04:55:45;;;;;;;30.73;10.85;;;;;;;;;;6267742;22;20532;-92
2022/12/11 04:58:11;;;;;;;26.85;10.65;;;;;;;;;;6269329;22;20014;-92
2022/12/11 05:00:36;;;;;;;28.65;9.93;;;;;;;;;;6264432;22;20004;-91
2022/12/11 05:03:01;;;;;;;33.17;11.43;;;;;;;;;;6266881;22;20341;-92
2022/12/11 05:05:26;;;;;;;25.63;10.05;;;;;;;;;;6266854;22;20066;-92
2022/12/11 05:07:52;;;;;;;28.92;11.77;;;;;;;;;;6267123;22;20252;-91
2022/12/11 05:10:18;;;;;;;25.92;9.80;;;;;;;;;;6268053;22;20000;-92
2022/12/11 05:12:43;;;;;;;26.90;9.98;;;;;;;;;;6269747;22;20000;-92
2022/12/11 05:15:08;;;;;;;30.98;11.07;;;;;;;;;;6269640;22;20498;-93
2022/12/11 05:17:34;;;;;;;25.65;10.30;;;;;;;;;;6267803;22;20000;-91
2022/12/11 05:19:59;;;;;;;27.67;10.05;;;;;;;;;;6267487;22;20042;-93
2022/12/11 05:22:24;;;;;;;26.88;10.63;;;;;;;;;;6266158;22;20008;-91
2022/12/11 05:24:49;;;;;;;28.13;10.18;;;;;;;;;;6268719;22;20401;-93
2022/12/11 05:27:15;;;;;;;30.50;11.02;;;;;;;;;;6268225;22;20019;-92
2022/12/11 05:29:40;;;;;;;30.02;10.77;;;;;;;;;;6267731;22;20015;-92
2022/12/11 05:32:06;;;;;;;31.05;10.80;;;;;;;;;;6267818;22;20008;-92
2022/12/11 05:34:31;;;;;;;31.65;10.68;;;;;;;;;;6266524;22;20031;-92
2022/12/11 05:36:57;;;;;;;27.10;10.13;;;;;;;;;;6294257;22;20011;-92
2022/12/11 05:39:25;;;;;;;27.42;10.45;;;;;;;;;;6268061;22;20018;-92
2022/12/11 05:41:50;;;;;;;28.80;10.00;;;;;;;;;;6268043;22;20054;-91
2022/12/11 05:44:15;;;;;;;30.58;10.02;;;;;;;;;;6269743;22;20453;-92
2022/12/11 05:46:41;;;;;;;27.63;9.88;;;;;;;;;;6266607;22;20050;-92
2022/12/11 05:49:06;;;;;;;26.20;9.88;;;;;;;;;;6267999;22;20015;-92
2022/12/11 05:51:35;;;;;;;28.60;10.32;;;;;;;;;;6270075;22;20443;-92
2022/12/11 05:54:00;;;;;;;29.60;10.38;;;;;;;;;;6267521;22;19996;-91
2022/12/11 05:56:27;;;;;;;29.17;11.25;;;;;;;;;;6269575;22;19992;-91
2022/12/11 05:58:53;;;;;;;26.48;10.23;;;;;;;;;;6267001;22;20400;-92
2022/12/11 06:01:20;;;;;;;31.52;10.95;;;;;;;;;;6268445;22;20016;-92
2022/12/11 06:03:46;;;;;;;32.15;11.20;;;;;;;;;;6263403;22;20023;-92
2022/12/11 06:06:11;;;;;;;27.42;9.70;;;;;;;;;;6266429;22;20076;-92
2022/12/11 06:08:36;;;;;;;28.60;9.95;;;;;;;;;;6292480;22;20014;-92
2022/12/11 06:11:02;;;;;;;27.30;9.90;;;;;;;;;;6267625;22;20102;-92
2022/12/11 06:13:27;;;;;;;29.70;10.30;;;;;;;;;;6267083;22;20020;-92
2022/12/11 06:15:53;;;;;;;29.10;10.68;;;;;;;;;;6270282;22;20022;-92
2022/12/11 06:18:18;;;;;;;26.02;9.38;;;;;;;;;;6269090;22;20010;-91
2022/12/11 06:20:43;;;;;;;30.75;10.25;;;;;;;;;;6269579;22;20053;-92
2022/12/11 06:23:08;;;;;;;30.35;10.10;;;;;;;;;;6268932;22;19999;-92
2022/12/11 06:25:34;;;;;;;31.15;10.05;;;;;;;;;;6269085;22;20008;-92
2022/12/11 06:27:59;;;;;;;28.83;9.85;;;;;;;;;;6268212;22;20053;-92
2022/12/11 06:30:25;;;;;;;28.38;9.77;;;;;;;;;;6271648;22;20015;-92
2022/12/11 06:32:50;;;;;;;25.48;9.43;;;;;;;;;;6270936;22;20027;-92
2022/12/11 06:35:15;;;;;;;29.27;10.25;;;;;;;;;;6268723;22;20006;-92
2022/12/11 06:37:40;;;;;;;74.07;12.55;;;;;;;;;;6270778;22;20050;-93
2022/12/11 06:40:07;;;;;;;24.42;9.75;;;;;;;;;;6267792;22;20105;-92
2022/12/11 06:42:32;;;;;;;29.00;9.82;;;;;;;;;;6269707;22;20000;-92
2022/12/11 06:44:58;;;;;;;24.70;9.68;;;;;;;;;;6268903;22;20010;-92
2022/12/11 06:47:27;;;;;;;30.25;9.40;;;;;;;;;;6271442;22;20065;-92
2022/12/11 06:49:52;;;;;;;32.38;9.98;;;;;;;;;;6268121;22;20010;-92
2022/12/11 06:52:18;;;;;;;24.65;9.13;;;;;;;;;;6294299;22;20094;-92
2022/12/11 06:54:43;;;;;;;21.75;9.00;;;;;;;;;;6268958;22;20107;-93
2022/12/11 06:57:09;;;;;;;23.75;8.18;;;;;;;;;;6269626;22;19991;-92
2022/12/11 06:59:34;;;;;;;26.38;9.15;;;;;;;;;;6268060;22;20008;-92
2022/12/11 07:01:59;;;;;;;34.67;9.23;;;;;;;;;;6271468;22;19995;-92
2022/12/11 07:04:26;;;;;;;22.10;7.93;;;;;;;;;;6272483;22;20019;-91
2022/12/11 07:06:52;;;;;;;28.75;8.73;;;;;;;;;;6273883;22;20015;-92
2022/12/11 07:09:17;;;;;;;21.75;7.95;;;;;;;;;;6272542;22;20021;-92
2022/12/11 07:11:42;;;;;;;24.23;8.75;;;;;;;;;;6273580;22;20003;-92
2022/12/11 07:14:08;;;;;;;22.30;7.80;;;;;;;;;;6274115;22;20187;-90
2022/12/11 07:16:33;;;;;;;21.38;8.63;;;;;;;;;;6301584;22;20220;-92
2022/12/11 07:18:58;;;;;;;24.40;7.88;;;;;;;;;;6301150;22;20001;-92
2022/12/11 07:21:24;;;;;;;21.83;7.45;;;;;;;;;;6272033;22;20035;-92
2022/12/11 07:23:49;;;;;;;45.97;9.90;;;;;;;;;;6274148;22;20011;-92
2022/12/11 07:26:15;;;;;;;25.38;8.30;;;;;;;;;;6301031;22;20687;-92
2022/12/11 07:28:41;;;;;;;35.63;9.95;;;;;;;;;;6273277;22;20015;-91
2022/12/11 07:31:10;;;;;;;21.83;7.50;;;;;;;;;;6302224;22;20007;-92
2022/12/11 07:33:35;;;;;;;24.20;8.73;;;;;;;;;;6272648;22;20007;-92
2022/12/11 07:36:04;;;;;;;30.15;8.68;;;;;;;;;;6273461;22;20010;-93
2022/12/11 07:38:30;;;;;;;24.45;8.68;;;;;;;;;;6300198;22;19995;-91
2022/12/11 07:40:55;;;;;;;25.23;8.48;;;;;;;;;;6274070;22;20006;-92
2022/12/11 07:43:20;;;;;;;24.52;7.95;;;;;;;;;;6301172;22;20006;-92
2022/12/11 07:45:46;;;;;;;23.23;8.50;;;;;;;;;;6271813;22;20099;-92
2022/12/11 07:48:11;;;;;;;25.00;9.00;;;;;;;;;;6272349;22;20121;-92
2022/12/11 07:50:37;;;;;;;27.20;10.13;;;;;;;;;;6273034;22;20019;-92
2022/12/11 07:53:02;;;;;;;27.73;9.00;;;;;;;;;;6300220;22;20045;-92
2022/12/11 07:55:27;;;;;;;34.67;9.87;;;;;;;;;;6273379;22;19999;-92
2022/12/11 07:57:52;;;;;;;22.60;9.00;;;;;;;;;;6273458;22;20236;-92
2022/12/11 08:00:18;;;;;;;23.73;8.07;;;;;;;;;;6273370;22;20216;-92
2022/12/11 08:02:43;;;;;;;38.10;9.60;;;;;;;;;;6301380;22;20026;-93
2022/12/11 08:05:08;;;;;;;25.67;8.27;;;;;;;;;;6269351;22;20703;-92
2022/12/11 08:07:34;;;;;;;24.70;7.97;;;;;;;;;;6268657;22;20007;-92
2022/12/11 08:09:59;;;;;;;22.48;8.20;;;;;;;;;;6270120;22;20058;-96
2022/12/11 08:12:25;;;;;;;19.42;7.97;;;;;;;;;;6275348;22;20011;-94
2022/12/11 08:14:50;;;;;;;19.20;7.37;;;;;;;;;;6271637;22;20090;-93
2022/12/11 08:17:15;;;;;;;19.77;6.88;;;;;;;;;;6299774;22;20312;-93
2022/12/11 08:19:40;;;;;;;21.77;8.25;;;;;;;;;;6297365;22;20060;-93
2022/12/11 08:22:06;;;;;;;20.52;7.47;;;;;;;;;;6272106;22;20552;-93
2022/12/11 08:24:31;;;;;;;22.73;7.57;;;;;;;;;;6272465;22;20010;-93
2022/12/11 08:26:57;;;;;;;18.67;6.80;;;;;;;;;;6270683;22;20019;-92
2022/12/11 08:29:25;;;;;;;19.63;6.95;;;;;;;;;;6298965;22;20286;-93
2022/12/11 08:31:50;;;;;;;20.55;7.35;;;;;;;;;;6272204;22;20014;-93
2022/12/11 08:34:15;;;;;;;20.15;7.32;;;;;;;;;;6272842;22;20003;-93
2022/12/11 08:36:41;;;;;;;21.17;7.10;;;;;;;;;;6297573;22;20007;-95
2022/12/11 08:39:06;;;;;;;24.77;8.45;;;;;;;;;;6272969;22;20443;-94
2022/12/11 08:41:31;;;;;;;24.65;8.35;;;;;;;;;;6300326;22;20416;-94
2022/12/11 08:43:57;;;;;;;21.63;7.47;;;;;;;;;;6271274;22;20015;-94
2022/12/11 08:46:23;;;;;;;28.83;7.60;;;;;;;;;;6299623;22;20003;-92
2022/12/11 08:48:49;;;;;;;24.95;8.07;;;;;;;;;;6269308;22;20003;-93
2022/12/11 08:51:15;;;;;;;20.63;6.95;;;;;;;;;;6271832;22;20445;-92
2022/12/11 08:53:41;;;;;;;19.15;7.15;;;;;;;;;;6270945;22;20121;-92
2022/12/11 08:56:08;;;;;;;20.85;7.45;;;;;;;;;;6267113;22;20031;-91
2022/12/11 08:58:34;;;;;;;19.83;7.35;;;;;;;;;;6268796;22;19999;-92
2022/12/11 09:01:04;;;;;;;25.63;8.40;;;;;;;;;;6265318;22;20042;-92
2022/12/11 09:03:29;;;;;;;109.05;12.40;;;;;;;;;;6270437;22;20030;-92
2022/12/11 09:05:55;;;;;;;32.60;8.40;;;;;;;;;;6269989;22;20007;-92
2022/12/11 09:08:20;;;;;;;20.10;7.55;;;;;;;;;;6299894;22;20227;-92
2022/12/11 09:10:45;;;;;;;17.77;7.13;;;;;;;;;;6294824;22;20009;-93
2022/12/11 09:13:13;;;;;;;17.00;6.80;;;;;;;;;;6266438;22;20704;-92
2022/12/11 09:15:40;;;;;;;366.77;29.17;;;;;;;;;;6264232;22;20003;-92
2022/12/11 09:18:05;;;;;;;21.10;7.93;;;;;;;;;;6265692;22;20007;-92
2022/12/11 09:20:30;;;;;;;21.55;7.45;;;;;;;;;;6265816;22;20007;-92
2022/12/11 09:22:55;;;;;;;19.60;7.28;;;;;;;;;;6296294;22;20820;-92
2022/12/11 09:25:21;;;;;;;20.95;7.65;;;;;;;;;;6291103;22;20022;-93
2022/12/11 09:27:46;;;;;;;24.08;7.97;;;;;;;;;;6294940;22;20479;-91
2022/12/11 09:30:11;;;;;;;23.70;7.53;;;;;;;;;;6291872;22;20094;-92
2022/12/11 09:32:38;;;;;;;35.88;8.68;;;;;;;;;;6266052;22;20003;-91
2022/12/11 09:35:04;;;;;;;20.17;6.75;;;;;;;;;;6293264;22;20011;-92
2022/12/11 09:37:29;;;;;;;20.30;7.80;;;;;;;;;;6295092;22;20456;-92
2022/12/11 09:39:54;;;;;;;19.88;7.13;;;;;;;;;;6267876;22;20230;-92
2022/12/11 09:42:23;;;;;;;19.73;7.07;;;;;;;;;;6294656;22;20048;-91
2022/12/11 09:44:50;;;;;;;17.40;6.25;;;;;;;;;;6269118;22;20264;-93
2022/12/11 09:47:33;;;;;;;19.10;7.18;;;;;;;;;;6296475;22;20003;-92
2022/12/11 09:50:05;;;;;;;18.73;7.15;;;;;;;;;;6295968;22;20058;-91
2022/12/11 09:52:32;;;;;;;16.00;6.55;;;;;;;;;;6299978;22;20834;-91
2022/12/11 09:54:59;;;;;;;19.10;7.28;;;;;;;;;;6301007;22;20008;-92
2022/12/11 09:57:47;;;;;;;18.65;7.55;;;;;;;;;;6272894;22;20004;-92
2022/12/11 10:00:18;;;;;;;18.80;7.03;;;;;;;;;;6270579;22;20010;-92
2022/12/11 10:02:47;;;;;;;23.23;7.38;;;;;;;;;;6267817;22;20094;-92
2022/12/11 10:05:18;;;;;;;16.67;7.00;;;;;;;;;;6271873;22;20167;-91
2022/12/11 10:07:50;;;;;;;17.02;6.78;;;;;;;;;;6277585;22;20007;-91
2022/12/11 10:10:18;;;;;;;18.63;7.30;;;;;;;;;;6275383;22;20801;-92
2022/12/11 10:13:22;;;;;;;18.30;6.97;;;;;;;;;;6296744;22;20011;-92
2022/12/11 10:15:53;;;;;;;16.13;6.70;;;;;;;;;;6235414;23;20008;-91
2022/12/11 10:18:22;;;;;;;20.55;6.82;;;;;;;;;;6234471;23;20113;-91
2022/12/11 10:20:49;;;;;;;19.73;6.97;;;;;;;;;;6234542;23;20438;-92
2022/12/11 10:23:17;;;;;;;17.05;6.35;;;;;;;;;;6235575;23;20095;-91
2022/12/11 10:25:48;;;;;;;19.25;6.90;;;;;;;;;;6236241;23;20012;-92
2022/12/11 10:28:16;;;;;;;18.02;7.03;;;;;;;;;;6235537;23;20016;-92
2022/12/11 10:31:03;;;;;;;19.38;7.22;;;;;;;;;;6236521;23;20026;-92
2022/12/11 10:33:47;;;;;;;17.67;7.20;;;;;;;;;;6234699;23;20106;-91
2022/12/11 10:36:16;;;;;;;15.55;6.80;;;;;;;;;;6237075;23;20414;-91
2022/12/11 10:38:42;;;;;;;17.67;6.95;;;;;;;;;;6236453;23;20011;-91
2022/12/11 10:41:11;;;;;;;22.20;7.53;;;;;;;;;;6236002;23;20023;-92
2022/12/11 10:43:41;;;;;;;23.02;6.57;;;;;;;;;;6234374;23;20277;-91
2022/12/11 10:46:14;;;;;;;17.83;6.72;;;;;;;;;;6256742;22;20004;-91
2022/12/11 10:48:52;;;;;;;16.13;5.85;;;;;;;;;;6273957;22;20015;-92
2022/12/11 10:51:17;;;;;;;16.73;6.78;;;;;;;;;;6272719;22;20671;-91
2022/12/11 10:53:43;;;;;;;17.13;6.90;;;;;;;;;;6299206;22;20001;-92
2022/12/11 10:56:50;;;;;;;18.67;6.68;;;;;;;;;;6273859;22;20007;-91
2022/12/11 10:59:23;;;;;;;16.60;6.85;;;;;;;;;;6235707;23;20083;-91
2022/12/11 11:01:48;;;;;;;19.40;6.00;;;;;;;;;;6235403;23;20032;-91
2022/12/11 11:04:19;;;;;;;14.82;6.03;;;;;;;;;;6234718;23;20035;-92
2022/12/11 11:06:44;;;;;;;18.17;6.63;;;;;;;;;;6236156;23;20018;-92
2022/12/11 11:09:30;;;;;;;18.90;6.50;;;;;;;;;;6234845;23;20083;-91
2022/12/11 11:11:55;;;;;;;15.48;5.05;;;;;;;;;;6235227;23;20050;-92
2022/12/11 11:14:21;;;;;;;14.37;5.00;;;;;;;;;;6236136;23;20008;-91
2022/12/11 11:16:51;;;;;;;45.72;7.05;;;;;;;;;;6235348;23;20986;-91
2022/12/11 11:19:29;;;;;;;17.10;5.03;;;;;;;;;;6235210;23;20350;-91
2022/12/11 11:22:00;;;;;;;13.35;4.95;;;;;;;;;;6236252;23;20074;-91
2022/12/11 11:24:29;;;;;;;12.77;5.18;;;;;;;;;;6235437;23;20008;-92
2022/12/11 11:26:54;;;;;;;15.35;5.78;;;;;;;;;;6234254;23;20079;-91
2022/12/11 11:29:46;;;;;;;12.73;5.00;;;;;;;;;;6249509;22;20778;-91
2022/12/11 11:32:16;;;;;;;13.15;5.22;;;;;;;;;;6293885;22;20437;-91
2022/12/11 11:34:42;;;;;;;12.32;4.45;;;;;;;;;;6300704;22;20082;-91
2022/12/11 11:37:26;;;;;;;16.73;5.75;;;;;;;;;;6298943;22;20031;-91
2022/12/11 11:39:54;;;;;;;12.80;4.78;;;;;;;;;;6297748;22;19999;-92
2022/12/11 11:42:55;;;;;;;13.50;5.18;;;;;;;;;;6268347;22;19999;-92
2022/12/11 11:45:25;;;;;;;13.10;4.80;;;;;;;;;;6262650;22;20056;-92
2022/12/11 11:48:06;;;;;;;12.27;4.70;;;;;;;;;;6276896;22;20030;-96
2022/12/11 11:50:56;;;;;;;12.70;4.85;;;;;;;;;;6277032;22;20441;-96
2022/12/11 11:53:29;;;;;;;13.50;5.03;;;;;;;;;;6303615;22;20795;-96
2022/12/11 11:56:03;;;;;;;15.17;6.00;;;;;;;;;;6303874;22;20007;-94
2022/12/11 11:58:31;;;;;;;15.80;5.85;;;;;;;;;;6276919;22;20003;-96
2022/12/11 12:00:57;;;;;;;16.85;5.50;;;;;;;;;;6276488;22;20078;-96
2022/12/11 12:03:24;;;;;;;15.93;6.07;;;;;;;;;;6301542;22;20084;-96
2022/12/11 12:05:54;;;;;;;13.93;5.35;;;;;;;;;;6275822;22;20421;-94
2022/12/11 12:08:23;;;;;;;190.68;17.17;;;;;;;;;;6276314;22;20004;-94
2022/12/11 12:10:55;;;;;;;13.98;5.28;;;;;;;;;;6275768;22;20030;-95
2022/12/11 12:13:53;;;;;;;14.68;5.75;;;;;;;;;;6302703;22;20019;-96
2022/12/11 12:16:27;;;;;;;13.85;4.82;;;;;;;;;;6225109;22;20042;-96
2022/12/11 12:19:06;;;;;;;13.95;4.90;;;;;;;;;;6276493;22;20015;-96
2022/12/11 12:21:35;;;;;;;12.82;5.15;;;;;;;;;;6276330;22;20094;-94
2022/12/11 12:24:09;;;;;;;21.55;5.18;;;;;;;;;;6304382;22;20018;-93
2022/12/11 12:26:37;;;;;;;285.75;22.77;;;;;;;;;;6276438;22;20440;-95
2022/12/11 12:29:22;;;;;;;12.95;4.93;;;;;;;;;;6275710;22;20011;-94
2022/12/11 12:32:00;;;;;;;13.43;4.97;;;;;;;;;;6274782;22;20018;-93
2022/12/11 12:34:44;;;;;;;13.18;4.97;;;;;;;;;;6276202;22;20045;-94
2022/12/11 12:37:19;;;;;;;12.60;4.40;;;;;;;;;;6276586;22;20332;-96
2022/12/11 12:39:59;;;;;;;10.95;4.18;;;;;;;;;;6275647;22;20090;-93
2022/12/11 12:42:30;;;;;;;17.38;4.40;;;;;;;;;;6303429;22;20619;-96
2022/12/11 12:45:01;;;;;;;11.57;4.28;;;;;;;;;;6274710;22;20011;-94
2022/12/11 12:47:28;;;;;;;159.75;15.25;;;;;;;;;;6303620;22;20130;-94
2022/12/11 12:50:08;;;;;;;13.75;5.38;;;;;;;;;;6262350;22;20037;-94
2022/12/11 12:52:37;;;;;;;12.43;5.32;;;;;;;;;;6244638;22;20015;-95
2022/12/11 12:55:17;;;;;;;14.10;4.78;;;;;;;;;;6272532;22;20004;-94
2022/12/11 12:57:48;;;;;;;12.15;4.75;;;;;;;;;;6272186;22;20000;-94
2022/12/11 13:00:24;;;;;;;14.68;5.35;;;;;;;;;;6240397;23;20376;-95
2022/12/11 13:02:50;;;;;;;13.20;5.72;;;;;;;;;;6239662;22;20067;-94
2022/12/11 13:05:23;;;;;;;13.43;6.07;;;;;;;;;;6245365;22;20050;-95
2022/12/11 13:07:53;;;;;;;12.07;4.43;;;;;;;;;;6266412;22;20020;-95
2022/12/11 13:10:27;;;;;;;12.07;4.78;;;;;;;;;;6259285;22;20004;-95
2022/12/11 13:12:55;;;;;;;12.82;5.13;;;;;;;;;;6240991;22;20019;-95
2022/12/11 13:15:25;;;;;;;10.50;4.70;;;;;;;;;;6259683;22;20018;-95
2022/12/11 13:17:50;;;;;;;12.23;4.60;;;;;;;;;;6240163;22;19999;-94
2022/12/11 13:20:20;;;;;;;11.35;4.18;;;;;;;;;;6254126;22;20043;-93
2022/12/11 13:22:47;;;;;;;11.18;4.10;;;;;;;;;;6265761;22;20024;-94
2022/12/11 13:25:18;;;;;;;12.57;4.07;;;;;;;;;;6268274;22;20003;-96
2022/12/11 13:27:44;;;;;;;12.02;4.25;;;;;;;;;;6265300;22;20020;-93
2022/12/11 13:30:18;;;;;;;10.25;3.80;;;;;;;;;;6245556;22;20015;-94
2022/12/11 13:33:04;;;;;;;9.80;3.80;;;;;;;;;;6245929;22;20003;-96
2022/12/11 13:35:30;;;;;;;10.20;2.85;;;;;;;;;;6262243;22;20026;-96
2022/12/11 13:38:00;;;;;;;9.88;3.25;;;;;;;;;;6242884;22;20634;-96
2022/12/11 13:40:32;;;;;;;9.73;3.47;;;;;;;;;;6272371;22;20061;-96
2022/12/11 13:43:04;;;;;;;10.23;3.67;;;;;;;;;;6270280;22;20337;-96
2022/12/11 13:45:42;;;;;;;12.10;3.67;;;;;;;;;;6246246;22;20053;-96
2022/12/11 13:48:18;;;;;;;12.68;4.07;;;;;;;;;;6245866;22;20342;-96
2022/12/11 13:50:45;;;;;;;12.32;4.13;;;;;;;;;;6293262;22;20053;-96
2022/12/11 13:53:14;;;;;;;10.32;3.53;;;;;;;;;;6275200;22;20094;-96
2022/12/11 13:55:39;;;;;;;10.27;3.70;;;;;;;;;;6276570;22;19996;-96
2022/12/11 13:58:14;;;;;;;12.65;4.00;;;;;;;;;;6272962;22;20018;-95
2022/12/11 14:00:39;;;;;;;10.65;3.65;;;;;;;;;;6273705;22;20006;-94
2022/12/11 14:03:08;;;;;;;12.50;4.60;;;;;;;;;;6273531;22;20003;-94
2022/12/11 14:05:34;;;;;;;11.05;3.95;;;;;;;;;;6273187;22;20697;-93
2022/12/11 14:08:04;;;;;;;11.98;3.97;;;;;;;;;;6275790;22;20072;-96
2022/12/11 14:10:31;;;;;;;10.27;3.97;;;;;;;;;;6303241;22;20078;-92
2022/12/11 14:13:06;;;;;;;10.63;4.03;;;;;;;;;;6302352;22;20328;-94
2022/12/11 14:15:34;;;;;;;13.32;4.82;;;;;;;;;;6275848;22;20037;-96
2022/12/11 14:17:59;;;;;;;12.48;4.63;;;;;;;;;;6275190;22;20023;-94
2022/12/11 14:20:27;;;;;;;12.95;4.13;;;;;;;;;;6301586;22;20010;-94
2022/12/11 14:23:15;;;;;;;10.98;4.30;;;;;;;;;;6302453;22;20033;-95
2022/12/11 14:25:40;;;;;;;11.23;4.32;;;;;;;;;;6302563;22;19999;-93
2022/12/11 14:28:14;;;;;;;12.50;5.10;;;;;;;;;;6303100;22;20007;-94
2022/12/11 14:30:43;;;;;;;12.40;4.97;;;;;;;;;;6276272;22;20010;-95
2022/12/11 14:33:09;;;;;;;11.65;4.93;;;;;;;;;;6302825;22;20008;-94
2022/12/11 14:35:38;;;;;;;13.02;4.53;;;;;;;;;;6274974;22;20033;-94
2022/12/11 14:38:09;;;;;;;13.27;4.50;;;;;;;;;;6276324;22;20007;-94
2022/12/11 14:40:38;;;;;;;11.27;4.22;;;;;;;;;;6276777;22;20007;-95
2022/12/11 14:43:08;;;;;;;12.15;4.25;;;;;;;;;;6276348;22;20003;-95